Saltar para o conteúdo principal

Mora

ID 1210826 · 38.9407, -8.1641 mapa

Última leitura · 2026-05-09 19:00 (Europe/Lisbon)

Temperatura
15.9 °C
Humidade
80 %
Pressão
Precipitação
0.2 mm
Radiação
715 W/m²
Velocidade do vento
10.4 km/h
Direcção do vento
SW · Sudoeste

Histórico de 24 horas

Hora (Europe/Lisbon) Temperatura Humidade Pressão Chuva Vento Direcção
2026-05-09 19:00 15.9 °C 80 % 0.2 mm 10.4 km/h SW
2026-05-09 18:00 16.3 °C 79 % 0.2 mm 15.8 km/h SW
2026-05-09 17:00 15.4 °C 84 % 1.4 mm 16.2 km/h SW
2026-05-09 16:00 17.7 °C 67 % 0.9 mm 15.8 km/h S
2026-05-09 15:00 19.7 °C 52 % 0.0 mm 20.9 km/h SW
2026-05-09 14:00 20.1 °C 52 % 0.0 mm 22.7 km/h SW
2026-05-09 13:00 18.8 °C 61 % 0.0 mm 19.1 km/h SW
2026-05-09 12:00 17.3 °C 72 % 0.0 mm 19.1 km/h SW
2026-05-09 11:00 15.5 °C 90 % 0.1 mm 10.8 km/h S
2026-05-09 10:00 14.0 °C 94 % 0.1 mm 3.2 km/h SE
2026-05-09 09:00 12.7 °C 97 % 0.1 mm 2.9 km/h SE
2026-05-09 08:00 12.5 °C 96 % 3.0 mm 4.0 km/h SE
2026-05-09 07:00 13.3 °C 88 % 2.1 mm 5.8 km/h SE
2026-05-09 06:00 13.3 °C 89 % 0.0 mm 5.8 km/h SE
2026-05-09 05:00 13.1 °C 91 % 0.0 mm 4.0 km/h SE
2026-05-09 04:00 12.9 °C 90 % 0.0 mm 3.2 km/h SE
2026-05-09 03:00 12.7 °C 89 % 0.0 mm 2.9 km/h SE
2026-05-09 02:00 13.2 °C 86 % 0.0 mm 6.5 km/h SE
2026-05-09 01:00 13.3 °C 84 % 0.0 mm 4.3 km/h SE
2026-05-09 00:00 13.6 °C 89 % 0.2 mm 8.3 km/h SE
2026-05-08 23:00 13.5 °C 91 % 0.7 mm 5.8 km/h SE
2026-05-08 22:00 14.3 °C 90 % 0.1 mm 11.5 km/h S
2026-05-08 21:00 14.3 °C 91 % 0.0 mm 5.8 km/h S
2026-05-08 20:00 16.5 °C 76 % 1.4 mm 6.8 km/h SW